Time;durP1;ratioP1;P1;durP2;ratioP2;P2;SDS_P1;SDS_P2;PMS_P1;PMS_P2;Temp;Humidity;BMP_temperature;BMP_pressure;BME280_temperature;BME280_humidity;BME280_pressure;Samples;Min_cycle;Max_cycle;Signal;HPM_P1;HPM_P2
2021/03/24 00:01:00;;;;;;;16.50;9.87;;;;;;;;;;5084587;28;20484;-73
2021/03/24 00:03:30;;;;;;;16.43;10.63;;;;;;;;;;5079507;28;20568;-73
2021/03/24 00:05:58;;;;;;;15.63;10.20;;;;;;;;;;5079342;28;20493;-73
2021/03/24 00:08:25;;;;;;;14.00;9.73;;;;;;;;;;5078771;28;20457;-73
2021/03/24 00:10:53;;;;;;;21.20;11.43;;;;;;;;;;5080821;28;20829;-74
2021/03/24 00:13:20;;;;;;;15.47;9.80;;;;;;;;;;5083571;28;20456;-73
2021/03/24 00:15:48;;;;;;;15.23;10.43;;;;;;;;;;5099305;28;20849;-72
2021/03/24 00:18:17;;;;;;;17.90;11.70;;;;;;;;;;5100166;28;20448;-72
2021/03/24 00:20:45;;;;;;;15.20;11.30;;;;;;;;;;5099550;28;20474;-72
2021/03/24 00:23:13;;;;;;;17.00;10.40;;;;;;;;;;5090397;28;20570;-72
2021/03/24 00:25:40;;;;;;;20.60;11.33;;;;;;;;;;5085866;28;20481;-72
2021/03/24 00:28:09;;;;;;;19.93;12.60;;;;;;;;;;5079029;28;20466;-72
2021/03/24 00:30:40;;;;;;;17.90;12.10;;;;;;;;;;5079018;28;20524;-73
2021/03/24 00:33:08;;;;;;;19.10;12.17;;;;;;;;;;5080863;28;20453;-72
2021/03/24 00:35:37;;;;;;;22.27;11.43;;;;;;;;;;5098511;28;20456;-72
2021/03/24 00:38:04;;;;;;;19.20;13.13;;;;;;;;;;5098814;28;20456;-72
2021/03/24 00:40:35;;;;;;;20.10;13.50;;;;;;;;;;5099059;28;20462;-72
2021/03/24 00:43:04;;;;;;;18.30;12.33;;;;;;;;;;5098276;28;20963;-72
2021/03/24 00:45:32;;;;;;;20.70;12.60;;;;;;;;;;5099257;28;20523;-72
2021/03/24 00:48:00;;;;;;;18.93;12.53;;;;;;;;;;5097868;28;20464;-72
2021/03/24 00:50:30;;;;;;;22.30;13.43;;;;;;;;;;5086321;28;20460;-73
2021/03/24 00:52:58;;;;;;;21.13;13.67;;;;;;;;;;5077867;28;20449;-72
2021/03/24 00:55:26;;;;;;;18.57;13.13;;;;;;;;;;5077804;28;20450;-73
2021/03/24 00:57:53;;;;;;;24.20;16.50;;;;;;;;;;5092642;28;20456;-72
2021/03/24 01:00:23;;;;;;;21.07;14.63;;;;;;;;;;5095917;28;20912;-72
2021/03/24 01:02:50;;;;;;;20.40;13.80;;;;;;;;;;5098354;28;20555;-72
2021/03/24 01:05:19;;;;;;;22.80;14.40;;;;;;;;;;5097807;28;20502;-72
2021/03/24 01:07:47;;;;;;;21.03;13.93;;;;;;;;;;5096283;28;20453;-72
2021/03/24 01:10:19;;;;;;;21.87;15.17;;;;;;;;;;5087811;28;20456;-72
2021/03/24 01:12:46;;;;;;;22.20;15.83;;;;;;;;;;5077803;28;20787;-72
2021/03/24 01:15:14;;;;;;;26.13;14.47;;;;;;;;;;5090681;28;20526;-72
2021/03/24 01:17:41;;;;;;;28.60;14.97;;;;;;;;;;5098065;28;20441;-72
2021/03/24 01:20:09;;;;;;;24.77;15.50;;;;;;;;;;5095670;28;20488;-72
2021/03/24 01:22:37;;;;;;;27.47;15.27;;;;;;;;;;5097229;28;20861;-72
2021/03/24 01:25:05;;;;;;;26.30;16.50;;;;;;;;;;5097738;28;20567;-73
2021/03/24 01:27:33;;;;;;;27.80;18.13;;;;;;;;;;5082997;28;20479;-72
2021/03/24 01:30:01;;;;;;;28.03;16.27;;;;;;;;;;5095153;28;20499;-72
2021/03/24 01:32:28;;;;;;;26.23;15.83;;;;;;;;;;5096493;28;20543;-72
2021/03/24 01:34:56;;;;;;;32.87;19.23;;;;;;;;;;5077057;28;20515;-72
2021/03/24 01:37:28;;;;;;;33.17;19.87;;;;;;;;;;5077745;28;21075;-72
2021/03/24 01:39:55;;;;;;;31.87;19.70;;;;;;;;;;5093287;28;20488;-72
2021/03/24 01:42:23;;;;;;;30.03;17.73;;;;;;;;;;5097786;28;21065;-72
2021/03/24 01:45:06;;;;;;;31.70;17.77;;;;;;;;;;5097419;28;20507;-72
2021/03/24 01:47:34;;;;;;;33.63;18.83;;;;;;;;;;5096541;28;20494;-72
2021/03/24 01:50:02;;;;;;;33.73;20.87;;;;;;;;;;5096551;28;20469;-73
2021/03/24 01:52:29;;;;;;;33.90;20.17;;;;;;;;;;5083264;28;20928;-73
2021/03/24 01:54:56;;;;;;;35.03;21.17;;;;;;;;;;5077051;28;20490;-72
2021/03/24 01:57:25;;;;;;;35.40;20.50;;;;;;;;;;5076846;28;20564;-72
2021/03/24 01:59:54;;;;;;;37.43;20.70;;;;;;;;;;5093208;28;20512;-72
2021/03/24 02:02:30;;;;;;;33.60;20.93;;;;;;;;;;5097011;28;20450;-72
2021/03/24 02:05:00;;;;;;;42.13;21.17;;;;;;;;;;5095671;28;20479;-72
2021/03/24 02:07:29;;;;;;;40.60;21.53;;;;;;;;;;5097539;28;20517;-72
2021/03/24 02:10:02;;;;;;;44.43;22.63;;;;;;;;;;5080512;28;20469;-72
2021/03/24 02:12:41;;;;;;;38.93;23.67;;;;;;;;;;5077917;28;20457;-72
2021/03/24 02:15:10;;;;;;;40.40;22.60;;;;;;;;;;5096590;28;20448;-72
2021/03/24 02:17:41;;;;;;;40.67;22.80;;;;;;;;;;5084655;28;20456;-72
2021/03/24 02:20:11;;;;;;;39.07;24.20;;;;;;;;;;5078371;28;20494;-72
2021/03/24 02:22:40;;;;;;;46.33;26.13;;;;;;;;;;5097219;28;20452;-73
2021/03/24 02:25:10;;;;;;;47.97;23.30;;;;;;;;;;5095713;28;20483;-72
2021/03/24 02:27:40;;;;;;;42.87;26.13;;;;;;;;;;5090666;28;20456;-72
2021/03/24 02:30:44;;;;;;;39.70;23.60;;;;;;;;;;5076979;28;20453;-73
2021/03/24 02:33:13;;;;;;;49.00;25.77;;;;;;;;;;5076691;28;20860;-72
2021/03/24 02:35:43;;;;;;;48.00;24.37;;;;;;;;;;5077565;28;20460;-72
2021/03/24 02:38:11;;;;;;;44.07;25.30;;;;;;;;;;5077986;28;20573;-73
2021/03/24 02:40:40;;;;;;;46.87;24.87;;;;;;;;;;5075982;28;20451;-73
2021/03/24 02:43:08;;;;;;;42.97;24.93;;;;;;;;;;5077630;28;20477;-72
2021/03/24 02:45:38;;;;;;;46.97;24.37;;;;;;;;;;5076530;28;20496;-72
2021/03/24 02:48:07;;;;;;;45.90;22.97;;;;;;;;;;5076724;28;20471;-72
2021/03/24 02:50:35;;;;;;;58.37;27.73;;;;;;;;;;5076367;28;20460;-72
2021/03/24 02:53:04;;;;;;;49.03;26.93;;;;;;;;;;5076530;28;20456;-72
2021/03/24 02:55:31;;;;;;;44.93;24.53;;;;;;;;;;5076543;28;20453;-72
2021/03/24 02:57:59;;;;;;;47.33;24.27;;;;;;;;;;5076394;28;20499;-72
2021/03/24 03:00:30;;;;;;;46.80;28.43;;;;;;;;;;5076624;28;20753;-73
2021/03/24 03:02:59;;;;;;;51.17;24.97;;;;;;;;;;5076543;28;20492;-72
2021/03/24 03:05:29;;;;;;;49.63;27.50;;;;;;;;;;5076538;28;20481;-73
2021/03/24 03:07:58;;;;;;;47.70;24.70;;;;;;;;;;5076468;28;20865;-73
2021/03/24 03:10:28;;;;;;;52.50;26.10;;;;;;;;;;5076131;28;20467;-72
2021/03/24 03:13:00;;;;;;;53.47;27.80;;;;;;;;;;5076032;28;20446;-72
2021/03/24 03:15:31;;;;;;;46.47;26.60;;;;;;;;;;5075885;28;20717;-72
2021/03/24 03:18:03;;;;;;;50.70;25.60;;;;;;;;;;5077583;28;20452;-73
2021/03/24 03:20:36;;;;;;;44.47;25.00;;;;;;;;;;5095560;28;20481;-72
2021/03/24 03:23:07;;;;;;;49.23;27.67;;;;;;;;;;5092919;28;20460;-74
2021/03/24 03:25:59;;;;;;;48.63;26.03;;;;;;;;;;5080640;28;20488;-72
2021/03/24 03:28:31;;;;;;;44.73;27.43;;;;;;;;;;5079531;28;20888;-72
2021/03/24 03:31:01;;;;;;;54.10;28.33;;;;;;;;;;5080448;28;20500;-72
2021/03/24 03:33:34;;;;;;;47.07;25.63;;;;;;;;;;5079483;28;20461;-72
2021/03/24 03:36:04;;;;;;;47.00;25.90;;;;;;;;;;5093144;28;20452;-72
2021/03/24 03:38:35;;;;;;;47.30;26.10;;;;;;;;;;5099582;28;20518;-72
2021/03/24 03:41:06;;;;;;;47.17;24.93;;;;;;;;;;5099091;28;20451;-72
2021/03/24 03:43:37;;;;;;;56.20;25.43;;;;;;;;;;5099224;28;20467;-72
2021/03/24 03:46:10;;;;;;;53.87;29.23;;;;;;;;;;5099102;28;20929;-72
2021/03/24 03:48:40;;;;;;;56.17;28.30;;;;;;;;;;5099343;28;20448;-73
2021/03/24 03:51:12;;;;;;;50.33;25.83;;;;;;;;;;5100393;28;20462;-72
2021/03/24 03:53:43;;;;;;;51.43;27.30;;;;;;;;;;5100913;28;20555;-73
2021/03/24 03:56:14;;;;;;;53.53;29.57;;;;;;;;;;5099006;28;20444;-74
2021/03/24 03:58:43;;;;;;;50.63;27.97;;;;;;;;;;5101183;28;20486;-72
2021/03/24 04:01:15;;;;;;;48.97;27.23;;;;;;;;;;5100500;28;20463;-71
2021/03/24 04:03:47;;;;;;;52.40;27.70;;;;;;;;;;5099384;28;20960;-73
2021/03/24 04:06:19;;;;;;;53.07;26.67;;;;;;;;;;5100915;28;20484;-74
2021/03/24 04:08:49;;;;;;;52.67;26.90;;;;;;;;;;5100570;28;20536;-73
2021/03/24 04:11:17;;;;;;;51.83;27.63;;;;;;;;;;5094755;28;20474;-73
2021/03/24 04:13:47;;;;;;;56.10;31.33;;;;;;;;;;5098520;28;20464;-73
2021/03/24 04:16:16;;;;;;;54.93;28.70;;;;;;;;;;5098198;28;20442;-73
2021/03/24 04:18:47;;;;;;;52.23;26.57;;;;;;;;;;5098965;28;20470;-73
2021/03/24 04:21:14;;;;;;;53.20;28.70;;;;;;;;;;5089355;28;20449;-73
2021/03/24 04:23:45;;;;;;;49.27;25.40;;;;;;;;;;5079797;28;20719;-73
2021/03/24 04:26:15;;;;;;;58.93;31.83;;;;;;;;;;5079558;28;20531;-73
2021/03/24 04:28:47;;;;;;;48.90;27.70;;;;;;;;;;5083751;28;20468;-73
2021/03/24 04:31:15;;;;;;;52.93;28.13;;;;;;;;;;5089478;28;21076;-74
2021/03/24 04:33:44;;;;;;;58.67;30.00;;;;;;;;;;5099720;28;20720;-73
2021/03/24 04:36:19;;;;;;;60.37;31.87;;;;;;;;;;5099201;28;20458;-73
2021/03/24 04:38:49;;;;;;;56.27;30.13;;;;;;;;;;5085070;28;20867;-73
2021/03/24 04:41:19;;;;;;;54.17;28.30;;;;;;;;;;5099658;28;20452;-73
2021/03/24 04:43:50;;;;;;;55.20;28.63;;;;;;;;;;5095253;28;20464;-73
2021/03/24 04:46:22;;;;;;;59.87;27.03;;;;;;;;;;5087412;28;20581;-73
2021/03/24 04:48:52;;;;;;;51.93;26.10;;;;;;;;;;5090915;28;20519;-73
2021/03/24 04:51:24;;;;;;;50.50;27.77;;;;;;;;;;5083122;28;20449;-73
2021/03/24 04:53:57;;;;;;;69.37;30.70;;;;;;;;;;5078584;28;20853;-73
2021/03/24 04:56:26;;;;;;;61.70;29.43;;;;;;;;;;5087958;28;20524;-71
2021/03/24 04:59:00;;;;;;;56.77;28.07;;;;;;;;;;5098544;28;20452;-73
2021/03/24 05:01:30;;;;;;;51.33;26.57;;;;;;;;;;5099447;28;20730;-73
2021/03/24 05:03:59;;;;;;;58.63;27.73;;;;;;;;;;5098123;28;20456;-73
2021/03/24 05:06:28;;;;;;;52.70;29.43;;;;;;;;;;5095714;28;20782;-74
2021/03/24 05:08:56;;;;;;;55.53;28.30;;;;;;;;;;5077264;28;20793;-73
2021/03/24 05:11:27;;;;;;;52.43;28.40;;;;;;;;;;5077311;28;20449;-73
2021/03/24 05:14:01;;;;;;;60.33;27.73;;;;;;;;;;5077946;28;20460;-73
2021/03/24 05:16:31;;;;;;;56.77;30.10;;;;;;;;;;5076907;28;20452;-73
2021/03/24 05:19:01;;;;;;;54.13;29.60;;;;;;;;;;5077025;28;20468;-73
2021/03/24 05:21:44;;;;;;;53.97;28.47;;;;;;;;;;5076630;28;20450;-73
2021/03/24 05:24:14;;;;;;;60.70;32.10;;;;;;;;;;5076357;28;20465;-73
2021/03/24 05:26:44;;;;;;;57.13;29.60;;;;;;;;;;5085277;28;20487;-73
2021/03/24 05:29:14;;;;;;;53.57;29.30;;;;;;;;;;5081717;28;20465;-73
2021/03/24 05:31:46;;;;;;;58.87;28.30;;;;;;;;;;5076881;28;20448;-73
2021/03/24 05:34:16;;;;;;;59.40;31.07;;;;;;;;;;5076541;28;20747;-73
2021/03/24 05:36:45;;;;;;;54.00;30.53;;;;;;;;;;5076872;28;20835;-73
2021/03/24 05:39:18;;;;;;;53.47;27.20;;;;;;;;;;5078205;28;20473;-73
2021/03/24 05:41:48;;;;;;;64.77;30.93;;;;;;;;;;5077229;28;20844;-73
2021/03/24 05:44:24;;;;;;;58.43;28.17;;;;;;;;;;5077578;28;20461;-73
2021/03/24 05:47:06;;;;;;;57.67;31.70;;;;;;;;;;5077215;28;20552;-73
2021/03/24 05:49:39;;;;;;;61.50;30.20;;;;;;;;;;5075881;28;20931;-73
2021/03/24 05:52:18;;;;;;;67.37;30.50;;;;;;;;;;5076615;28;20464;-73
2021/03/24 05:54:51;;;;;;;58.97;31.77;;;;;;;;;;5076312;28;20859;-73
2021/03/24 05:57:25;;;;;;;60.27;30.30;;;;;;;;;;5075630;28;20518;-73
2021/03/24 05:59:59;;;;;;;60.80;29.57;;;;;;;;;;5077464;28;20457;-73
2021/03/24 06:02:28;;;;;;;62.20;33.47;;;;;;;;;;5076042;28;20604;-73
2021/03/24 06:05:01;;;;;;;73.43;33.60;;;;;;;;;;5074323;28;20945;-73
2021/03/24 06:07:47;;;;;;;64.80;33.10;;;;;;;;;;5075214;28;20463;-73
2021/03/24 06:10:32;;;;;;;65.83;28.27;;;;;;;;;;5074694;28;20464;-73
2021/03/24 06:13:14;;;;;;;61.97;32.83;;;;;;;;;;5076362;28;20455;-73
2021/03/24 06:15:57;;;;;;;65.77;32.93;;;;;;;;;;5032185;28;20476;-73
2021/03/24 06:18:47;;;;;;;61.10;33.80;;;;;;;;;;5075250;28;20469;-72
2021/03/24 06:21:18;;;;;;;61.23;31.57;;;;;;;;;;5074911;28;20489;-73
2021/03/24 06:23:54;;;;;;;65.73;33.07;;;;;;;;;;5074141;28;20468;-73
2021/03/24 06:26:34;;;;;;;52.93;27.67;;;;;;;;;;5076792;28;20471;-73
2021/03/24 06:29:06;;;;;;;66.17;33.70;;;;;;;;;;5094905;28;20541;-73
2021/03/24 06:31:51;;;;;;;61.57;30.70;;;;;;;;;;5082565;28;20444;-73
2021/03/24 06:34:32;;;;;;;52.43;32.50;;;;;;;;;;5074653;28;20586;-73
2021/03/24 06:37:14;;;;;;;64.83;32.80;;;;;;;;;;5075560;28;20468;-72
2021/03/24 06:40:05;;;;;;;67.93;34.50;;;;;;;;;;5077265;28;20937;-73
2021/03/24 06:42:48;;;;;;;65.83;31.77;;;;;;;;;;5062436;28;20460;-73
2021/03/24 06:45:31;;;;;;;58.83;30.27;;;;;;;;;;5074087;28;20498;-72
2021/03/24 06:48:02;;;;;;;66.03;31.63;;;;;;;;;;5074205;28;20476;-72
2021/03/24 06:50:41;;;;;;;61.93;29.80;;;;;;;;;;5073328;28;20983;-73
2021/03/24 06:53:25;;;;;;;64.17;33.10;;;;;;;;;;5087701;28;20463;-73
2021/03/24 06:56:10;;;;;;;60.53;29.07;;;;;;;;;;5097872;28;20839;-73
2021/03/24 06:59:11;;;;;;;64.83;32.87;;;;;;;;;;5084782;28;20467;-73
2021/03/24 07:01:58;;;;;;;57.97;33.30;;;;;;;;;;5008088;28;20444;-74
2021/03/24 07:04:47;;;;;;;69.50;32.57;;;;;;;;;;5018298;28;20509;-74
2021/03/24 07:07:26;;;;;;;66.83;32.13;;;;;;;;;;5077569;28;20466;-73
2021/03/24 07:10:00;;;;;;;62.90;33.50;;;;;;;;;;5099089;28;20494;-73
2021/03/24 07:12:30;;;;;;;64.23;34.43;;;;;;;;;;5095263;28;20460;-73
2021/03/24 07:15:16;;;;;;;71.40;34.67;;;;;;;;;;5080492;28;20453;-73
2021/03/24 07:18:01;;;;;;;61.83;32.87;;;;;;;;;;5093921;28;20482;-73
2021/03/24 07:20:48;;;;;;;61.03;31.70;;;;;;;;;;5098501;28;20455;-72
2021/03/24 07:23:27;;;;;;;67.23;35.33;;;;;;;;;;5098924;28;20459;-72
2021/03/24 07:26:04;;;;;;;67.00;32.10;;;;;;;;;;5097557;28;20495;-72
2021/03/24 07:28:56;;;;;;;61.27;31.30;;;;;;;;;;5097279;28;20938;-72
2021/03/24 07:31:41;;;;;;;54.73;32.07;;;;;;;;;;5099519;28;20448;-71
2021/03/24 07:34:15;;;;;;;77.90;33.70;;;;;;;;;;5087495;28;20487;-72
2021/03/24 07:36:46;;;;;;;60.83;32.40;;;;;;;;;;5079710;28;20840;-72
2021/03/24 07:39:32;;;;;;;63.67;34.77;;;;;;;;;;5078102;28;20437;-72
2021/03/24 07:42:22;;;;;;;65.20;33.97;;;;;;;;;;5079503;28;20521;-73
2021/03/24 07:45:00;;;;;;;65.90;34.93;;;;;;;;;;5077257;28;20860;-72
2021/03/24 07:47:36;;;;;;;59.80;34.10;;;;;;;;;;5077604;28;20437;-71
2021/03/24 07:50:11;;;;;;;62.83;33.43;;;;;;;;;;5077671;28;20711;-72
2021/03/24 07:52:48;;;;;;;56.03;32.10;;;;;;;;;;5078071;28;20460;-71
2021/03/24 07:55:21;;;;;;;70.13;33.50;;;;;;;;;;5077364;28;20449;-71
2021/03/24 07:57:54;;;;;;;115.27;68.10;;;;;;;;;;5082340;28;20483;-72
2021/03/24 08:00:38;;;;;;;56.73;31.27;;;;;;;;;;5084145;28;20448;-72
2021/03/24 08:03:15;;;;;;;56.03;32.33;;;;;;;;;;5085386;28;20535;-71
2021/03/24 08:05:52;;;;;;;62.80;34.90;;;;;;;;;;5077575;28;20851;-71
2021/03/24 08:08:27;;;;;;;56.70;35.07;;;;;;;;;;5076068;28;20472;-73
2021/03/24 08:11:02;;;;;;;56.40;31.77;;;;;;;;;;5090663;28;20549;-73
2021/03/24 08:13:51;;;;;;;57.80;29.30;;;;;;;;;;5094760;28;20464;-72
2021/03/24 08:16:34;;;;;;;57.63;30.57;;;;;;;;;;5081125;28;20505;-72
2021/03/24 08:19:11;;;;;;;59.30;31.60;;;;;;;;;;5080654;28;20463;-73
2021/03/24 08:21:44;;;;;;;63.10;33.97;;;;;;;;;;5096950;28;20476;-73
2021/03/24 08:24:21;;;;;;;58.80;31.40;;;;;;;;;;5097907;28;20499;-73
2021/03/24 08:26:50;;;;;;;61.80;29.63;;;;;;;;;;5097588;28;20480;-73
2021/03/24 08:29:26;;;;;;;67.37;34.47;;;;;;;;;;5097893;28;20453;-74
2021/03/24 08:32:11;;;;;;;55.83;34.03;;;;;;;;;;5080498;28;20717;-73
2021/03/24 08:34:57;;;;;;;67.50;35.13;;;;;;;;;;5076318;28;20759;-73
2021/03/24 08:37:44;;;;;;;77.77;38.67;;;;;;;;;;5064339;28;20461;-72
2021/03/24 08:40:25;;;;;;;61.83;33.93;;;;;;;;;;5076555;28;20450;-73
2021/03/24 08:43:07;;;;;;;57.50;31.17;;;;;;;;;;5075765;28;20526;-72
2021/03/24 08:45:39;;;;;;;62.87;34.00;;;;;;;;;;5076639;28;20487;-73
2021/03/24 08:48:07;;;;;;;60.50;35.87;;;;;;;;;;5076787;28;20528;-73
2021/03/24 08:50:39;;;;;;;59.47;34.27;;;;;;;;;;5076047;28;20851;-73
2021/03/24 08:53:14;;;;;;;73.43;38.17;;;;;;;;;;5081971;28;21091;-73
2021/03/24 08:55:47;;;;;;;67.47;33.70;;;;;;;;;;5080749;28;20449;-74
2021/03/24 08:58:23;;;;;;;60.33;35.50;;;;;;;;;;5091936;28;20742;-73
2021/03/24 09:01:20;;;;;;;59.40;33.60;;;;;;;;;;5097167;28;20523;-73
2021/03/24 09:04:05;;;;;;;55.30;33.60;;;;;;;;;;5074648;28;20543;-73
2021/03/24 09:06:41;;;;;;;66.30;34.57;;;;;;;;;;5076668;28;20519;-74
2021/03/24 09:09:22;;;;;;;57.10;33.37;;;;;;;;;;5077239;28;20492;-73
2021/03/24 09:11:58;;;;;;;64.33;34.83;;;;;;;;;;5075936;28;20512;-73
2021/03/24 09:14:34;;;;;;;60.53;33.80;;;;;;;;;;5077229;28;20549;-72
2021/03/24 09:17:24;;;;;;;65.87;33.93;;;;;;;;;;5085135;28;20734;-73
2021/03/24 09:20:30;;;;;;;60.00;33.50;;;;;;;;;;5054480;28;20996;-72
2021/03/24 09:23:16;;;;;;;60.17;34.70;;;;;;;;;;5082838;28;20473;-73
2021/03/24 09:25:48;;;;;;;59.67;31.63;;;;;;;;;;5076386;28;20583;-73
2021/03/24 09:28:33;;;;;;;52.00;29.57;;;;;;;;;;5076403;28;20483;-71
2021/03/24 09:31:31;;;;;;;55.07;34.20;;;;;;;;;;5076773;28;20857;-71
2021/03/24 09:34:09;;;;;;;53.13;31.87;;;;;;;;;;5088396;28;20466;-71
2021/03/24 09:37:22;;;;;;;52.10;30.40;;;;;;;;;;5091416;28;20511;-73
2021/03/24 09:39:55;;;;;;;45.00;28.10;;;;;;;;;;5013315;28;20561;-71
2021/03/24 09:42:28;;;;;;;56.73;32.63;;;;;;;;;;5079108;28;20466;-72
2021/03/24 09:45:13;;;;;;;57.00;30.77;;;;;;;;;;5089736;28;20469;-73
2021/03/24 09:47:52;;;;;;;51.00;29.37;;;;;;;;;;5095267;28;20439;-73
2021/03/24 09:50:33;;;;;;;55.33;30.17;;;;;;;;;;5077867;28;20448;-72
2021/03/24 09:53:06;;;;;;;51.83;30.70;;;;;;;;;;5080867;28;20765;-72
2021/03/24 09:55:37;;;;;;;58.30;34.37;;;;;;;;;;5084569;28;20800;-72
2021/03/24 09:58:11;;;;;;;61.33;34.73;;;;;;;;;;5075662;28;20456;-71
2021/03/24 10:00:42;;;;;;;58.17;33.17;;;;;;;;;;5077701;28;20449;-71
2021/03/24 10:03:22;;;;;;;53.70;34.73;;;;;;;;;;5086096;28;20479;-72
2021/03/24 10:06:04;;;;;;;61.63;33.27;;;;;;;;;;5090045;28;20550;-72
2021/03/24 10:08:47;;;;;;;60.27;32.43;;;;;;;;;;5095616;28;20462;-73
2021/03/24 10:11:22;;;;;;;58.20;34.60;;;;;;;;;;5085886;28;20479;-72
2021/03/24 10:13:58;;;;;;;59.90;35.37;;;;;;;;;;5093805;28;20456;-73
2021/03/24 10:16:31;;;;;;;51.87;31.60;;;;;;;;;;5097347;28;20454;-73
2021/03/24 10:19:01;;;;;;;61.33;34.80;;;;;;;;;;5095581;28;20885;-73
2021/03/24 10:21:33;;;;;;;58.47;33.70;;;;;;;;;;5096091;28;20533;-73
2021/03/24 10:24:03;;;;;;;62.13;33.20;;;;;;;;;;5096575;28;20506;-73
2021/03/24 10:26:38;;;;;;;58.40;33.70;;;;;;;;;;5095428;28;20495;-72
2021/03/24 10:29:20;;;;;;;60.67;34.43;;;;;;;;;;5094561;28;20443;-72
2021/03/24 10:31:49;;;;;;;57.20;33.30;;;;;;;;;;5072820;28;20970;-72
2021/03/24 10:34:20;;;;;;;48.57;29.17;;;;;;;;;;5073416;28;20885;-72
2021/03/24 10:36:51;;;;;;;52.17;30.10;;;;;;;;;;5073683;28;20451;-73
2021/03/24 10:39:23;;;;;;;53.83;32.47;;;;;;;;;;5074046;28;20468;-73
2021/03/24 10:41:53;;;;;;;52.20;34.03;;;;;;;;;;5091275;28;20938;-72
2021/03/24 10:44:26;;;;;;;50.30;29.50;;;;;;;;;;5094279;28;20478;-72
2021/03/24 10:47:06;;;;;;;43.40;27.60;;;;;;;;;;5085835;28;20514;-72
2021/03/24 10:49:36;;;;;;;42.80;25.80;;;;;;;;;;5076640;28;20539;-71
2021/03/24 10:52:06;;;;;;;42.73;25.67;;;;;;;;;;5075302;28;20517;-72
2021/03/24 10:54:35;;;;;;;47.70;27.47;;;;;;;;;;5076127;28;20457;-70
2021/03/24 10:57:13;;;;;;;41.67;23.00;;;;;;;;;;5077043;28;20894;-73
2021/03/24 10:59:46;;;;;;;40.53;25.97;;;;;;;;;;5073151;28;20758;-72
2021/03/24 11:02:32;;;;;;;44.50;26.00;;;;;;;;;;5076729;28;20455;-72
2021/03/24 11:05:04;;;;;;;46.20;25.80;;;;;;;;;;5094431;28;20579;-72
2021/03/24 11:07:35;;;;;;;42.90;25.30;;;;;;;;;;5093790;28;20783;-72
2021/03/24 11:10:22;;;;;;;43.80;26.43;;;;;;;;;;5095127;28;20940;-72
2021/03/24 11:12:57;;;;;;;49.23;26.60;;;;;;;;;;5079791;28;20461;-72
2021/03/24 11:15:29;;;;;;;44.23;26.07;;;;;;;;;;5074961;28;20504;-72
2021/03/24 11:18:04;;;;;;;43.67;26.73;;;;;;;;;;5075331;28;20474;-72
2021/03/24 11:20:43;;;;;;;43.13;29.50;;;;;;;;;;5074671;28;20454;-72
2021/03/24 11:23:12;;;;;;;45.03;30.57;;;;;;;;;;5092459;28;20868;-73
2021/03/24 11:25:41;;;;;;;42.00;25.90;;;;;;;;;;5095824;28;20495;-72
2021/03/24 11:28:17;;;;;;;35.97;20.80;;;;;;;;;;5094373;28;20464;-72
2021/03/24 11:30:48;;;;;;;44.00;29.23;;;;;;;;;;5091923;28;20445;-72
2021/03/24 11:33:18;;;;;;;39.30;27.67;;;;;;;;;;5078122;28;20479;-72
2021/03/24 11:35:52;;;;;;;45.40;26.50;;;;;;;;;;5077915;28;20474;-72
2021/03/24 11:38:40;;;;;;;43.40;28.23;;;;;;;;;;5077091;28;20464;-72
2021/03/24 11:41:12;;;;;;;37.07;25.93;;;;;;;;;;5086501;28;20518;-72
2021/03/24 11:44:05;;;;;;;40.67;26.50;;;;;;;;;;5097650;28;20451;-72
2021/03/24 11:46:36;;;;;;;42.20;27.43;;;;;;;;;;5078243;28;20924;-72
2021/03/24 11:49:18;;;;;;;45.77;27.57;;;;;;;;;;5076115;28;20464;-72
2021/03/24 11:51:56;;;;;;;39.83;24.20;;;;;;;;;;5076942;28;20499;-71
2021/03/24 11:54:29;;;;;;;40.57;27.30;;;;;;;;;;5076882;28;20471;-72
2021/03/24 11:57:06;;;;;;;42.57;26.47;;;;;;;;;;5084317;28;20468;-72
2021/03/24 11:59:42;;;;;;;42.40;27.97;;;;;;;;;;5086848;28;20457;-71
2021/03/24 12:02:16;;;;;;;43.00;26.70;;;;;;;;;;5088023;28;20572;-71
2021/03/24 12:04:57;;;;;;;41.70;25.70;;;;;;;;;;5077512;28;20531;-72
2021/03/24 12:07:31;;;;;;;45.40;28.10;;;;;;;;;;5078538;28;20524;-71
2021/03/24 12:10:03;;;;;;;38.70;27.27;;;;;;;;;;5084198;28;20448;-72
2021/03/24 12:12:30;;;;;;;50.63;30.73;;;;;;;;;;5093728;28;20521;-71
2021/03/24 12:15:08;;;;;;;46.27;26.33;;;;;;;;;;5085766;28;20544;-71
2021/03/24 12:17:37;;;;;;;49.17;28.80;;;;;;;;;;5086975;28;20464;-72
2021/03/24 12:20:13;;;;;;;45.37;30.00;;;;;;;;;;5085378;28;20572;-71
2021/03/24 12:22:41;;;;;;;45.53;27.43;;;;;;;;;;5077513;28;20458;-71
2021/03/24 12:25:17;;;;;;;37.53;23.53;;;;;;;;;;5078148;28;20566;-71
2021/03/24 12:27:45;;;;;;;43.33;26.73;;;;;;;;;;5077105;28;20454;-72
2021/03/24 12:30:28;;;;;;;37.90;24.43;;;;;;;;;;5076672;28;20760;-71
2021/03/24 12:33:09;;;;;;;40.33;27.80;;;;;;;;;;5074746;28;20892;-72
2021/03/24 12:35:38;;;;;;;38.37;23.07;;;;;;;;;;5082836;28;20464;-71
2021/03/24 12:38:08;;;;;;;37.13;26.97;;;;;;;;;;5096519;28;20559;-72
2021/03/24 12:40:35;;;;;;;43.33;27.17;;;;;;;;;;5098010;28;20471;-72
2021/03/24 12:43:08;;;;;;;39.73;24.67;;;;;;;;;;5096429;28;20457;-71
2021/03/24 12:45:38;;;;;;;39.60;26.70;;;;;;;;;;5097195;28;20452;-71
2021/03/24 12:48:07;;;;;;;40.33;26.83;;;;;;;;;;5096555;28;20495;-72
2021/03/24 12:50:37;;;;;;;41.03;25.43;;;;;;;;;;5093546;28;20937;-72
2021/03/24 12:53:08;;;;;;;40.20;23.13;;;;;;;;;;5088537;28;20466;-72
2021/03/24 12:55:38;;;;;;;34.47;23.13;;;;;;;;;;5092944;28;20542;-71
2021/03/24 12:58:23;;;;;;;37.47;24.47;;;;;;;;;;5097453;28;20751;-71
2021/03/24 13:01:09;;;;;;;35.50;25.10;;;;;;;;;;5097230;28;20541;-72
2021/03/24 13:03:53;;;;;;;38.10;23.33;;;;;;;;;;5095378;28;20466;-72
2021/03/24 13:06:28;;;;;;;48.47;27.10;;;;;;;;;;5097055;28;20502;-72
2021/03/24 13:09:02;;;;;;;41.10;26.70;;;;;;;;;;5093842;28;20953;-72
2021/03/24 13:11:34;;;;;;;43.53;27.60;;;;;;;;;;5089660;28;20525;-72
2021/03/24 13:14:11;;;;;;;41.67;27.47;;;;;;;;;;5085019;28;20463;-72
2021/03/24 13:16:40;;;;;;;35.60;25.93;;;;;;;;;;5091194;28;20495;-72
2021/03/24 13:19:10;;;;;;;39.67;24.40;;;;;;;;;;5087322;28;20479;-71
2021/03/24 13:21:50;;;;;;;38.53;23.30;;;;;;;;;;5096658;28;20873;-72
2021/03/24 13:24:26;;;;;;;35.60;20.87;;;;;;;;;;5096315;28;20458;-71
2021/03/24 13:26:55;;;;;;;31.53;22.77;;;;;;;;;;5096010;28;20733;-72
2021/03/24 13:29:34;;;;;;;35.30;22.93;;;;;;;;;;5094885;28;20727;-73
2021/03/24 13:32:06;;;;;;;36.00;23.93;;;;;;;;;;5076057;28;20767;-71
2021/03/24 13:34:44;;;;;;;33.53;21.67;;;;;;;;;;5078576;28;20824;-73
2021/03/24 13:37:20;;;;;;;34.00;19.67;;;;;;;;;;5078330;28;20469;-70
2021/03/24 13:39:54;;;;;;;36.03;22.70;;;;;;;;;;5077093;28;20546;-73
2021/03/24 13:42:30;;;;;;;37.90;23.30;;;;;;;;;;5079162;28;20470;-72
2021/03/24 13:45:04;;;;;;;38.43;23.67;;;;;;;;;;5093585;28;20452;-71
2021/03/24 13:47:37;;;;;;;34.20;22.40;;;;;;;;;;5085612;28;20920;-72
2021/03/24 13:50:08;;;;;;;31.27;22.30;;;;;;;;;;5075823;28;20461;-73
2021/03/24 13:52:52;;;;;;;35.07;22.90;;;;;;;;;;5075715;28;20588;-73
2021/03/24 13:55:43;;;;;;;32.80;22.10;;;;;;;;;;5078790;28;20449;-73
2021/03/24 13:58:23;;;;;;;29.87;21.70;;;;;;;;;;5076442;28;20460;-73
2021/03/24 14:00:53;;;;;;;33.90;21.40;;;;;;;;;;5081522;28;20543;-72
2021/03/24 14:03:30;;;;;;;34.20;20.87;;;;;;;;;;5075183;28;20465;-72
2021/03/24 14:06:02;;;;;;;29.13;19.40;;;;;;;;;;5079134;28;20475;-72
2021/03/24 14:08:38;;;;;;;36.03;21.90;;;;;;;;;;5075144;28;20469;-72
2021/03/24 14:11:30;;;;;;;33.73;21.70;;;;;;;;;;5076498;28;20497;-72
2021/03/24 14:14:02;;;;;;;36.30;20.97;;;;;;;;;;5003482;28;20496;-72
2021/03/24 14:16:40;;;;;;;29.80;19.73;;;;;;;;;;5082382;28;20448;-72
2021/03/24 14:19:26;;;;;;;29.23;20.67;;;;;;;;;;5075397;28;20455;-72
2021/03/24 14:22:03;;;;;;;30.60;20.60;;;;;;;;;;5075570;28;20517;-71
2021/03/24 14:27:57;;;;;;;31.10;19.93;;;;;;;;;;5072063;28;20485;-72
2021/03/24 14:30:28;;;;;;;24.90;16.17;;;;;;;;;;5087996;28;20459;-72
2021/03/24 14:33:07;;;;;;;25.83;17.03;;;;;;;;;;5086964;28;20470;-72
2021/03/24 14:35:38;;;;;;;32.07;20.40;;;;;;;;;;5085496;28;20454;-71
2021/03/24 14:38:18;;;;;;;27.80;19.60;;;;;;;;;;5088626;28;20558;-72
2021/03/24 14:40:50;;;;;;;36.83;20.67;;;;;;;;;;5095261;28;20531;-73
2021/03/24 14:43:30;;;;;;;33.67;19.30;;;;;;;;;;5095991;28;20877;-72
2021/03/24 14:46:03;;;;;;;25.70;17.83;;;;;;;;;;5094337;28;20505;-72
2021/03/24 14:48:40;;;;;;;34.10;18.20;;;;;;;;;;5091395;28;20512;-73
2021/03/24 14:51:36;;;;;;;29.50;20.90;;;;;;;;;;5091417;28;20450;-73
2021/03/24 14:54:19;;;;;;;27.20;18.50;;;;;;;;;;5058051;28;20459;-73
2021/03/24 14:56:48;;;;;;;23.63;16.90;;;;;;;;;;5072265;28;20556;-73
2021/03/24 14:59:31;;;;;;;28.60;20.20;;;;;;;;;;5073370;28;20495;-72
2021/03/24 15:02:11;;;;;;;23.33;17.00;;;;;;;;;;5072912;28;20823;-72